Terminal Aerodrome Forecast
Issued by NWS

Current Version | Previous Version | Text Only | Print | Product List | Glossary On
Versions: 1 2 3 4 5 6 7 8 9 10 11 12 13 14 15 16 17
000
FTUS43 KGRB 171521 AAA
TAFMTW
TAF AMD
KMTW 171521Z 1715/1812 02004KT 1 1/2SM -RAPL BR OVC003
      TEMPO 1715/1718 3SM -DZ BR OVC002
     FM171800 01007G14KT 4SM -DZ BR OVC003
     FM180400 30004KT P6SM BKN010
     FM180700 27004KT P6SM SCT015
     FM180900 26004KT 3SM BR SCT015=

USA.gov is the U.S. government's official web portal to all federal, state and local government web resources and services.